Time;durP1;ratioP1;P1;durP2;ratioP2;P2;SDS_P1;SDS_P2;PMS_P1;PMS_P2;Temp;Humidity;BMP_temperature;BMP_pressure;BME280_temperature;BME280_humidity;BME280_pressure;Samples;Min_cycle;Max_cycle;Signal;HPM_P1;HPM_P2
2023/03/24 00:00:40;;;;;;;6.55;2.58;;;13.00;99.90;;;;;;4989086;28;20852;-77
2023/03/24 00:03:07;;;;;;;9.27;2.92;;;13.10;99.90;;;;;;4995920;28;20034;-76
2023/03/24 00:05:33;;;;;;;6.47;2.80;;;13.00;99.90;;;;;;5000046;28;20500;-76
2023/03/24 00:07:58;;;;;;;6.25;2.53;;;13.10;99.90;;;;;;4989042;28;20023;-74
2023/03/24 00:10:29;;;;;;;7.95;3.30;;;13.10;99.90;;;;;;4989076;28;20022;-76
2023/03/24 00:12:57;;;;;;;7.47;3.38;;;13.10;99.90;;;;;;4991114;28;20030;-75
2023/03/24 00:15:24;;;;;;;6.13;2.33;;;13.10;99.90;;;;;;4993180;28;20027;-75
2023/03/24 00:17:50;;;;;;;8.60;2.40;;;13.10;99.90;;;;;;4992847;28;20042;-77
2023/03/24 00:20:18;;;;;;;6.00;2.20;;;13.10;99.90;;;;;;4991922;28;20023;-76
2023/03/24 00:22:49;;;;;;;8.02;2.38;;;13.00;99.90;;;;;;4991999;28;20030;-76
2023/03/24 00:25:17;;;;;;;9.13;3.05;;;13.00;99.90;;;;;;4991162;28;20045;-76
2023/03/24 00:27:43;;;;;;;5.97;2.75;;;13.00;99.90;;;;;;4992132;28;20029;-77
2023/03/24 00:30:11;;;;;;;6.80;3.13;;;13.00;99.90;;;;;;4995532;28;20457;-76
2023/03/24 00:32:37;;;;;;;7.93;2.97;;;13.00;99.90;;;;;;5005514;28;20034;-76
2023/03/24 00:35:08;;;;;;;9.88;3.45;;;13.00;99.90;;;;;;4991652;28;20033;-76
2023/03/24 00:37:38;;;;;;;14.10;3.85;;;13.10;99.90;;;;;;4992481;28;20022;-76
2023/03/24 00:40:11;;;;;;;8.38;2.70;;;13.00;99.90;;;;;;4992359;28;20494;-75
2023/03/24 00:42:38;;;;;;;6.75;2.88;;;13.10;99.90;;;;;;4991851;28;20786;-76
2023/03/24 00:45:06;;;;;;;7.45;2.72;;;13.10;99.90;;;;;;4992537;28;20022;-75
2023/03/24 00:47:35;;;;;;;6.68;2.47;;;13.10;99.90;;;;;;4992428;28;20018;-76
2023/03/24 00:50:05;;;;;;;6.63;3.20;;;13.10;99.90;;;;;;4992143;28;20030;-75
2023/03/24 00:52:32;;;;;;;7.18;3.17;;;13.00;99.90;;;;;;4990678;28;20081;-76
2023/03/24 00:55:00;;;;;;;8.57;2.55;;;13.10;99.90;;;;;;4989132;28;20022;-75
2023/03/24 00:57:28;;;;;;;6.03;2.55;;;13.00;99.90;;;;;;4991848;28;20029;-76
2023/03/24 00:59:55;;;;;;;4.93;2.30;;;13.10;99.90;;;;;;4997612;28;20033;-76
2023/03/24 01:02:24;;;;;;;7.82;2.78;;;13.10;99.90;;;;;;4993619;28;20027;-76
2023/03/24 01:04:55;;;;;;;7.13;3.50;;;13.10;99.90;;;;;;4991777;28;20031;-76
2023/03/24 01:07:22;;;;;;;4.75;2.15;;;13.10;99.90;;;;;;4992706;28;20041;-76
2023/03/24 01:09:56;;;;;;;6.32;3.13;;;13.10;99.90;;;;;;4991803;28;20120;-76
2023/03/24 01:12:25;;;;;;;5.70;2.17;;;13.10;99.90;;;;;;4994778;28;20133;-75
2023/03/24 01:14:52;;;;;;;7.57;2.65;;;13.10;99.90;;;;;;4994911;28;20030;-76
2023/03/24 01:17:18;;;;;;;6.43;3.00;;;13.20;99.90;;;;;;4991824;28;20057;-77
2023/03/24 01:19:44;;;;;;;7.60;2.85;;;13.20;99.90;;;;;;4991871;28;20023;-77
2023/03/24 01:22:11;;;;;;;7.18;3.40;;;13.20;99.90;;;;;;4991899;28;20482;-77
2023/03/24 01:24:37;;;;;;;6.55;2.70;;;13.20;99.90;;;;;;4990271;28;20026;-76
2023/03/24 01:27:03;;;;;;;6.00;2.55;;;13.10;99.90;;;;;;4991823;28;20034;-77
2023/03/24 01:29:29;;;;;;;6.43;3.13;;;13.10;99.90;;;;;;5004705;28;20021;-77
2023/03/24 01:31:55;;;;;;;6.53;2.72;;;13.10;99.90;;;;;;4991308;28;20098;-76
2023/03/24 01:34:20;;;;;;;7.18;2.70;;;13.20;99.90;;;;;;4991434;28;20069;-77
2023/03/24 01:36:47;;;;;;;8.00;2.80;;;13.20;99.90;;;;;;4991163;28;20109;-77
2023/03/24 01:39:13;;;;;;;7.18;2.92;;;13.20;99.90;;;;;;4990269;28;20096;-76
2023/03/24 01:41:39;;;;;;;5.70;3.22;;;13.20;99.90;;;;;;4991418;28;20030;-76
2023/03/24 01:44:31;;;;;;;8.38;3.22;;;13.30;99.90;;;;;;4990998;28;20030;-77
2023/03/24 01:46:57;;;;;;;6.28;2.85;;;13.30;99.90;;;;;;4987942;28;20029;-76
2023/03/24 01:49:28;;;;;;;6.97;3.33;;;13.30;99.90;;;;;;4991349;28;20026;-77
2023/03/24 01:52:00;;;;;;;7.55;3.28;;;13.30;99.90;;;;;;4991059;28;20114;-75
2023/03/24 01:54:37;;;;;;;8.18;2.80;;;13.30;99.90;;;;;;4989982;28;20604;-76
2023/03/24 01:57:14;;;;;;;5.35;2.63;;;13.30;99.90;;;;;;4988274;28;20777;-77
2023/03/24 01:59:43;;;;;;;4.95;2.80;;;13.30;99.90;;;;;;4989736;28;20049;-76
2023/03/24 02:02:12;;;;;;;6.30;3.20;;;13.30;99.90;;;;;;4995232;28;20379;-77
2023/03/24 02:04:44;;;;;;;6.67;3.13;;;13.20;99.90;;;;;;4995714;28;20500;-77
2023/03/24 02:07:29;;;;;;;6.75;2.83;;;13.30;99.90;;;;;;4990688;28;20130;-76
2023/03/24 02:09:55;;;;;;;8.10;3.03;;;13.30;99.90;;;;;;4990861;28;20835;-77
2023/03/24 02:12:21;;;;;;;5.50;3.08;;;13.30;99.90;;;;;;4990741;28;20030;-76
2023/03/24 02:14:46;;;;;;;5.43;2.78;;;13.20;99.90;;;;;;4989338;28;20477;-77
2023/03/24 02:17:20;;;;;;;4.75;2.63;;;13.20;99.90;;;;;;4989978;28;20512;-77
2023/03/24 02:20:11;;;;;;;6.32;3.38;;;13.20;99.90;;;;;;4971300;28;20026;-77
2023/03/24 02:23:08;;;;;;;6.45;3.00;;;13.30;99.90;;;;;;4988308;28;20058;-76
2023/03/24 02:25:55;;;;;;;7.05;3.60;;;13.30;99.90;;;;;;4990404;28;20505;-76
2023/03/24 02:28:41;;;;;;;5.93;2.13;;;13.30;99.90;;;;;;4987424;28;20027;-77
2023/03/24 02:31:37;;;;;;;6.20;2.67;;;13.30;99.90;;;;;;4998913;28;20026;-76
2023/03/24 02:34:15;;;;;;;6.28;3.00;;;13.30;99.90;;;;;;4987403;28;20042;-76
2023/03/24 02:36:50;;;;;;;6.35;2.63;;;13.30;99.90;;;;;;4989786;28;20396;-76
2023/03/24 02:39:37;;;;;;;5.50;2.40;;;13.40;99.90;;;;;;4989331;28;20030;-76
2023/03/24 02:42:35;;;;;;;7.55;3.22;;;13.30;99.90;;;;;;4990275;28;20501;-77
2023/03/24 02:45:12;;;;;;;6.20;3.03;;;13.30;99.90;;;;;;4991776;28;20029;-77
2023/03/24 02:47:53;;;;;;;6.82;2.72;;;13.30;99.90;;;;;;4995718;28;20400;-77
2023/03/24 02:50:29;;;;;;;7.75;3.75;;;13.30;99.90;;;;;;4989001;28;20030;-77
2023/03/24 02:53:31;;;;;;;5.60;2.70;;;13.20;99.90;;;;;;4989824;28;20077;-77
2023/03/24 02:56:18;;;;;;;4.50;2.45;;;13.20;99.90;;;;;;4994057;28;20040;-77
2023/03/24 02:59:05;;;;;;;6.38;2.70;;;13.30;99.90;;;;;;4989102;28;20033;-77
2023/03/24 03:01:39;;;;;;;6.63;3.45;;;13.20;99.90;;;;;;4988786;28;20469;-76
2023/03/24 03:04:13;;;;;;;5.40;3.05;;;13.30;99.90;;;;;;4989190;28;20185;-77
2023/03/24 03:06:42;;;;;;;7.90;3.53;;;13.20;99.90;;;;;;4989048;28;20019;-77
2023/03/24 03:09:12;;;;;;;7.82;3.35;;;13.30;99.90;;;;;;4988461;28;20053;-77
2023/03/24 03:11:41;;;;;;;4.85;2.63;;;13.30;99.90;;;;;;4990721;28;20125;-75
2023/03/24 03:14:16;;;;;;;7.45;3.72;;;13.30;99.90;;;;;;4990006;28;20105;-75
2023/03/24 03:16:47;;;;;;;4.78;2.47;;;13.30;99.90;;;;;;4970412;28;20445;-77
2023/03/24 03:19:33;;;;;;;3.45;1.60;;;13.20;99.90;;;;;;4984257;28;20027;-77
2023/03/24 03:22:03;;;;;;;2.72;0.95;;;13.10;99.90;;;;;;4979088;28;20026;-77
2023/03/24 03:24:39;;;;;;;3.53;1.35;;;13.00;99.90;;;;;;4989410;28;20023;-76
2023/03/24 03:27:15;;;;;;;2.67;1.20;;;12.90;99.90;;;;;;4989882;28;20030;-77
2023/03/24 03:29:49;;;;;;;4.10;1.60;;;12.80;99.90;;;;;;4991924;28;20825;-78
2023/03/24 03:32:26;;;;;;;5.22;1.73;;;12.80;99.90;;;;;;4990879;28;20175;-77
2023/03/24 03:35:19;;;;;;;3.40;1.52;;;12.80;99.90;;;;;;4987061;28;20389;-77
2023/03/24 03:38:13;;;;;;;4.45;1.40;;;12.70;99.90;;;;;;4980013;28;20023;-77
2023/03/24 03:40:58;;;;;;;5.72;1.63;;;12.60;99.90;;;;;;4983783;28;20444;-76
2023/03/24 03:43:26;;;;;;;5.30;1.38;;;12.60;99.90;;;;;;4989911;28;20018;-76
2023/03/24 03:45:52;;;;;;;3.63;1.50;;;12.50;99.90;;;;;;5007422;28;20077;-77
2023/03/24 03:48:18;;;;;;;11.32;2.13;;;12.50;99.90;;;;;;4993271;28;20037;-77
2023/03/24 03:50:45;;;;;;;3.60;1.15;;;12.40;99.90;;;;;;4993283;28;20018;-77
2023/03/24 03:53:13;;;;;;;4.97;1.33;;;12.40;99.90;;;;;;4993634;28;20088;-75
2023/03/24 03:55:40;;;;;;;10.40;2.53;;;12.40;99.90;;;;;;4992290;28;20113;-77
2023/03/24 03:58:06;;;;;;;5.90;1.10;;;12.30;99.70;;;;;;5001962;28;20022;-78
2023/03/24 04:00:33;;;;;;;6.30;1.45;;;12.20;99.90;;;;;;4997814;28;20023;-78
2023/03/24 04:03:08;;;;;;;6.40;1.77;;;12.10;99.70;;;;;;4992519;28;20027;-77
2023/03/24 04:05:56;;;;;;;7.38;1.20;;;12.20;99.80;;;;;;4992919;28;20385;-77
2023/03/24 04:08:31;;;;;;;4.53;1.30;;;12.20;99.60;;;;;;4993164;28;20030;-76
2023/03/24 04:10:57;;;;;;;8.65;1.58;;;12.20;99.80;;;;;;5008106;28;20030;-76
2023/03/24 04:13:49;;;;;;;7.18;1.50;;;12.10;99.80;;;;;;4993052;28;20041;-77
2023/03/24 04:16:24;;;;;;;4.68;1.40;;;11.90;99.80;;;;;;4992514;28;20100;-77
2023/03/24 04:19:11;;;;;;;11.60;1.92;;;11.90;99.90;;;;;;4973102;28;20027;-78
2023/03/24 04:21:50;;;;;;;10.25;1.60;;;11.90;99.90;;;;;;4989743;28;20034;-78
2023/03/24 04:24:27;;;;;;;7.70;2.10;;;11.90;99.90;;;;;;4992538;28;20631;-78
2023/03/24 04:27:20;;;;;;;10.07;2.85;;;11.80;99.90;;;;;;4992043;28;20203;-78
2023/03/24 04:30:23;;;;;;;9.50;2.25;;;11.80;99.90;;;;;;4992631;28;20031;-76
2023/03/24 04:33:05;;;;;;;6.93;2.00;;;11.80;99.90;;;;;;4992737;28;20481;-78
2023/03/24 04:35:39;;;;;;;6.95;2.05;;;11.80;99.90;;;;;;4991387;28;20029;-77
2023/03/24 04:38:21;;;;;;;7.60;1.83;;;11.70;99.90;;;;;;4982268;28;20364;-78
2023/03/24 04:40:49;;;;;;;13.40;2.55;;;11.80;99.90;;;;;;4991564;28;20015;-78
2023/03/24 04:43:18;;;;;;;18.33;3.58;;;11.70;99.90;;;;;;4980505;28;20515;-77
2023/03/24 04:45:48;;;;;;;10.38;3.17;;;11.60;99.90;;;;;;4992097;28;20056;-79
2023/03/24 04:48:16;;;;;;;15.65;3.50;;;11.60;99.90;;;;;;4992587;28;20445;-78
2023/03/24 04:50:49;;;;;;;12.98;2.88;;;11.50;99.90;;;;;;4992233;28;20082;-77
2023/03/24 04:53:15;;;;;;;14.02;3.00;;;11.50;99.90;;;;;;4989572;28;20034;-78
2023/03/24 04:55:49;;;;;;;14.13;3.15;;;11.50;99.90;;;;;;4989193;28;20392;-79
2023/03/24 04:58:20;;;;;;;15.25;3.22;;;11.40;99.90;;;;;;4992006;28;20026;-79
2023/03/24 05:00:47;;;;;;;18.73;3.55;;;11.50;99.90;;;;;;4992279;28;20061;-77
2023/03/24 05:03:14;;;;;;;18.17;3.95;;;11.50;99.90;;;;;;4992635;28;20038;-76
2023/03/24 05:05:45;;;;;;;19.98;4.05;;;11.40;99.60;;;;;;4992868;28;20397;-77
2023/03/24 05:08:11;;;;;;;13.25;2.78;;;11.40;99.80;;;;;;4991134;28;20041;-77
2023/03/24 05:10:37;;;;;;;14.68;3.40;;;11.40;99.80;;;;;;4991003;28;20392;-78
2023/03/24 05:13:04;;;;;;;20.42;3.42;;;11.40;99.80;;;;;;4987523;28;20571;-77
2023/03/24 05:15:30;;;;;;;16.42;3.33;;;11.40;99.80;;;;;;4991242;28;20497;-76
2023/03/24 05:17:56;;;;;;;20.77;3.40;;;11.40;99.80;;;;;;4992144;28;20097;-78
2023/03/24 05:20:22;;;;;;;23.55;3.75;;;11.40;99.90;;;;;;4992623;28;20088;-76
2023/03/24 05:22:48;;;;;;;14.70;3.03;;;11.30;99.60;;;;;;4995775;28;20121;-75
2023/03/24 05:25:15;;;;;;;21.13;3.78;;;11.30;99.70;;;;;;4997469;28;20105;-75
2023/03/24 05:27:41;;;;;;;19.83;3.38;;;11.20;99.60;;;;;;4994404;28;20019;-77
2023/03/24 05:30:07;;;;;;;19.38;3.90;;;11.20;99.60;;;;;;4993331;28;20432;-77
2023/03/24 05:32:33;;;;;;;20.17;4.03;;;11.20;99.60;;;;;;4991697;28;20144;-78
2023/03/24 05:34:58;;;;;;;23.42;4.57;;;11.20;99.50;;;;;;4989280;28;20441;-77
2023/03/24 05:37:24;;;;;;;15.48;3.60;;;11.20;99.50;;;;;;4991518;28;20152;-77
2023/03/24 05:39:50;;;;;;;19.88;4.13;;;11.10;99.70;;;;;;4989538;28;20025;-76
2023/03/24 05:42:16;;;;;;;17.55;3.95;;;11.00;99.80;;;;;;4991190;28;20053;-76
2023/03/24 05:44:42;;;;;;;22.90;5.05;;;11.10;99.80;;;;;;4990069;28;20080;-77
2023/03/24 05:47:08;;;;;;;16.90;4.20;;;11.00;99.70;;;;;;4987306;28;20039;-78
2023/03/24 05:49:34;;;;;;;17.30;4.43;;;11.00;99.90;;;;;;4990970;28;20643;-77
2023/03/24 05:51:59;;;;;;;16.38;4.53;;;11.00;99.90;;;;;;5010477;28;20129;-77
2023/03/24 05:54:25;;;;;;;19.73;5.22;;;11.10;99.90;;;;;;4992392;28;20027;-78
2023/03/24 05:56:51;;;;;;;23.33;5.15;;;11.00;99.90;;;;;;5006950;28;20121;-78
2023/03/24 05:59:17;;;;;;;21.08;4.95;;;11.10;99.90;;;;;;4990278;28;20437;-79
2023/03/24 06:01:42;;;;;;;20.27;4.32;;;11.10;99.90;;;;;;4990021;28;20031;-77
2023/03/24 06:04:08;;;;;;;26.73;4.88;;;11.10;99.90;;;;;;4988828;28;20113;-79
2023/03/24 06:06:34;;;;;;;18.15;4.35;;;11.20;99.90;;;;;;4989809;28;20606;-78
2023/03/24 06:09:01;;;;;;;19.80;4.97;;;11.20;99.80;;;;;;4987937;28;20038;-78
2023/03/24 06:11:33;;;;;;;30.92;6.05;;;11.20;99.60;;;;;;4989317;28;20033;-79
2023/03/24 06:13:59;;;;;;;18.88;5.28;;;11.20;99.60;;;;;;4989144;28;20038;-78
2023/03/24 06:16:25;;;;;;;21.67;6.18;;;11.20;99.70;;;;;;4990649;28;20053;-78
2023/03/24 06:18:52;;;;;;;18.98;5.00;;;11.20;99.70;;;;;;4987358;28;20114;-78
2023/03/24 06:21:18;;;;;;;22.27;4.30;;;11.30;99.60;;;;;;5002393;28;20477;-78
2023/03/24 06:23:45;;;;;;;24.50;5.63;;;11.40;99.40;;;;;;4988523;28;20029;-78
2023/03/24 06:26:13;;;;;;;21.10;4.90;;;11.40;99.30;;;;;;4988833;28;20030;-78
2023/03/24 06:28:40;;;;;;;18.50;4.38;;;11.40;99.20;;;;;;4989672;28;20026;-78
2023/03/24 06:31:13;;;;;;;20.42;5.05;;;11.40;99.10;;;;;;4988550;28;20150;-78
2023/03/24 06:33:41;;;;;;;19.92;5.05;;;11.40;99.10;;;;;;4988013;28;20037;-78
2023/03/24 06:36:07;;;;;;;20.35;5.55;;;11.50;99.10;;;;;;4987187;28;20168;-80
2023/03/24 06:38:33;;;;;;;18.60;5.20;;;11.40;98.90;;;;;;4988048;28;20094;-78
2023/03/24 06:41:00;;;;;;;14.68;4.22;;;11.40;98.90;;;;;;4988756;28;20105;-78
2023/03/24 06:43:26;;;;;;;20.77;4.45;;;11.40;98.90;;;;;;4987213;28;20061;-80
2023/03/24 06:45:51;;;;;;;22.70;5.40;;;11.40;98.90;;;;;;4988684;28;20070;-79
2023/03/24 06:48:17;;;;;;;18.88;4.50;;;11.50;98.90;;;;;;4988344;28;20049;-79
2023/03/24 06:50:43;;;;;;;17.38;4.13;;;11.50;98.80;;;;;;4988369;28;20060;-79
2023/03/24 06:53:08;;;;;;;15.63;3.97;;;11.50;98.90;;;;;;4989535;28;20520;-79
2023/03/24 06:55:34;;;;;;;17.88;4.45;;;11.50;98.90;;;;;;4988157;28;20019;-78
2023/03/24 06:58:00;;;;;;;19.35;4.70;;;11.50;98.70;;;;;;4988506;28;20065;-77
2023/03/24 07:00:27;;;;;;;21.13;5.20;;;11.50;98.60;;;;;;4987866;28;20030;-77
2023/03/24 07:02:54;;;;;;;19.73;4.47;;;11.50;98.60;;;;;;4988895;28;20018;-75
2023/03/24 07:05:20;;;;;;;18.50;4.50;;;11.50;98.70;;;;;;4988862;28;20022;-78
2023/03/24 07:07:46;;;;;;;18.17;4.18;;;11.60;98.50;;;;;;4982863;28;20034;-78
2023/03/24 07:10:12;;;;;;;16.02;4.22;;;11.60;98.30;;;;;;4970278;28;20089;-78
2023/03/24 07:12:39;;;;;;;18.98;4.45;;;11.70;98.30;;;;;;4988075;28;20038;-78
2023/03/24 07:15:07;;;;;;;21.50;4.82;;;11.70;98.10;;;;;;5004170;28;20031;-78
2023/03/24 07:17:33;;;;;;;17.75;4.60;;;11.70;98.00;;;;;;4987384;28;20046;-79
2023/03/24 07:19:58;;;;;;;18.27;3.55;;;11.80;98.00;;;;;;4991126;28;20420;-77
2023/03/24 07:22:25;;;;;;;14.68;3.70;;;11.70;97.90;;;;;;5001686;28;20045;-77
2023/03/24 07:24:51;;;;;;;11.65;3.30;;;11.80;97.90;;;;;;4989457;28;20559;-76
2023/03/24 07:27:19;;;;;;;19.95;4.75;;;11.90;97.80;;;;;;4988053;28;20074;-76
2023/03/24 07:29:45;;;;;;;14.82;4.63;;;11.90;97.60;;;;;;4987949;28;20022;-76
2023/03/24 07:32:14;;;;;;;17.95;4.03;;;11.90;97.50;;;;;;4989146;28;20037;-77
2023/03/24 07:34:40;;;;;;;14.38;4.60;;;12.00;97.40;;;;;;4986801;28;20030;-77
2023/03/24 07:37:06;;;;;;;17.00;5.03;;;12.00;97.40;;;;;;4990047;28;20041;-76
2023/03/24 07:39:32;;;;;;;16.02;4.63;;;12.00;97.00;;;;;;4990508;28;20031;-76
2023/03/24 07:41:58;;;;;;;15.32;3.95;;;12.00;97.20;;;;;;4991743;28;20026;-77
2023/03/24 07:44:24;;;;;;;15.23;3.70;;;12.10;97.30;;;;;;4992037;28;20069;-77
2023/03/24 07:46:50;;;;;;;16.75;4.63;;;12.10;97.10;;;;;;4989567;28;20026;-75
2023/03/24 07:49:16;;;;;;;16.02;4.30;;;12.20;97.00;;;;;;4986535;28;20037;-77
2023/03/24 07:51:41;;;;;;;13.50;3.75;;;12.20;97.00;;;;;;4988393;28;20033;-77
2023/03/24 07:54:07;;;;;;;12.98;3.92;;;12.20;97.00;;;;;;4988476;28;20034;-77
2023/03/24 07:56:36;;;;;;;15.48;3.70;;;12.20;97.10;;;;;;4988448;28;20046;-77
2023/03/24 07:59:01;;;;;;;12.88;3.47;;;12.30;97.00;;;;;;4986359;28;20527;-78
2023/03/24 08:01:27;;;;;;;15.23;4.35;;;12.40;97.00;;;;;;4988532;28;20412;-77
2023/03/24 08:03:53;;;;;;;16.70;4.00;;;12.60;96.70;;;;;;4988739;28;20033;-77
2023/03/24 08:06:19;;;;;;;14.35;3.72;;;12.70;96.20;;;;;;4991435;28;20031;-78
2023/03/24 08:08:44;;;;;;;12.00;3.20;;;12.90;95.80;;;;;;4996916;28;20022;-78
2023/03/24 08:11:10;;;;;;;16.00;3.83;;;13.10;95.80;;;;;;4991558;28;20105;-77
2023/03/24 08:13:36;;;;;;;11.90;3.30;;;13.20;95.40;;;;;;4986896;28;20039;-78
2023/03/24 08:16:03;;;;;;;12.90;4.30;;;13.40;95.20;;;;;;4985901;28;20026;-77
2023/03/24 08:18:31;;;;;;;16.48;3.10;;;13.50;95.10;;;;;;4988039;28;20019;-77
2023/03/24 08:20:58;;;;;;;17.17;3.40;;;13.60;95.00;;;;;;4987221;28;20509;-77
2023/03/24 08:23:24;;;;;;;11.85;3.88;;;13.70;94.80;;;;;;4987928;28;20031;-77
2023/03/24 08:25:50;;;;;;;13.27;3.05;;;13.80;94.40;;;;;;4988157;28;20022;-77
2023/03/24 08:28:16;;;;;;;14.52;3.08;;;13.90;94.20;;;;;;4985977;28;20430;-78
2023/03/24 08:30:42;;;;;;;17.70;3.13;;;13.80;93.20;;;;;;4988178;28;20026;-78
2023/03/24 08:33:13;;;;;;;12.07;3.50;;;13.70;94.00;;;;;;4991045;28;20047;-75
2023/03/24 08:35:40;;;;;;;13.15;3.17;;;13.70;94.50;;;;;;4990954;28;20029;-75
2023/03/24 08:38:07;;;;;;;12.93;3.03;;;13.60;93.70;;;;;;4990526;28;20035;-77
2023/03/24 08:40:34;;;;;;;17.42;3.92;;;13.50;93.10;;;;;;4991161;28;20014;-77
2023/03/24 08:43:02;;;;;;;14.63;3.38;;;13.40;93.50;;;;;;4987957;28;20561;-77
2023/03/24 08:45:30;;;;;;;13.27;3.30;;;13.40;94.00;;;;;;4990869;28;20057;-75
2023/03/24 08:47:58;;;;;;;13.48;3.20;;;13.50;93.80;;;;;;4989951;28;20034;-76
2023/03/24 08:50:27;;;;;;;14.30;4.55;;;13.60;94.20;;;;;;4990382;28;20026;-77
2023/03/24 08:52:54;;;;;;;11.32;2.95;;;13.60;93.40;;;;;;4990086;28;20034;-76
2023/03/24 08:55:21;;;;;;;13.60;3.60;;;13.70;93.70;;;;;;4987276;28;20547;-75
2023/03/24 08:57:47;;;;;;;17.42;3.40;;;13.80;93.50;;;;;;4991482;28;20231;-77
2023/03/24 09:00:14;;;;;;;13.25;3.38;;;13.80;93.40;;;;;;4988076;28;20049;-76
2023/03/24 09:02:46;;;;;;;19.63;5.93;;;13.80;93.20;;;;;;4989209;28;20631;-75
2023/03/24 09:05:14;;;;;;;10.95;3.53;;;13.90;93.20;;;;;;4987521;28;20500;-76
2023/03/24 09:07:41;;;;;;;13.35;3.80;;;14.10;93.00;;;;;;4988683;28;20077;-75
2023/03/24 09:10:08;;;;;;;16.70;3.60;;;14.20;92.50;;;;;;5002184;28;20106;-79
2023/03/24 09:12:36;;;;;;;13.73;3.17;;;14.30;92.90;;;;;;4988947;28;20092;-77
2023/03/24 09:15:02;;;;;;;12.85;2.90;;;14.50;91.80;;;;;;4989555;28;20050;-76
2023/03/24 09:17:28;;;;;;;14.63;3.38;;;14.50;91.70;;;;;;4986094;28;20126;-78
2023/03/24 09:19:54;;;;;;;16.75;4.30;;;14.50;91.60;;;;;;4991423;28;20113;-75
2023/03/24 09:22:19;;;;;;;15.95;3.55;;;14.50;91.30;;;;;;4990787;28;20109;-77
2023/03/24 09:24:47;;;;;;;14.20;4.10;;;14.50;91.10;;;;;;4987790;28;20549;-75
2023/03/24 09:27:15;;;;;;;11.32;2.95;;;14.40;91.70;;;;;;4989433;28;20027;-76
2023/03/24 09:29:41;;;;;;;21.55;4.65;;;14.30;91.10;;;;;;4989672;28;20026;-76
2023/03/24 09:32:06;;;;;;;14.52;3.60;;;14.30;91.00;;;;;;4989425;28;20040;-77
2023/03/24 09:34:32;;;;;;;15.55;2.83;;;14.20;91.30;;;;;;4989269;28;20069;-76
2023/03/24 09:36:59;;;;;;;10.95;2.45;;;14.20;92.30;;;;;;4988925;28;20030;-76
2023/03/24 09:39:26;;;;;;;11.68;2.70;;;14.30;91.40;;;;;;4986305;28;20452;-75
2023/03/24 09:41:53;;;;;;;16.15;3.45;;;14.30;91.20;;;;;;4989367;28;20033;-76
2023/03/24 09:44:30;;;;;;;14.05;2.40;;;14.20;91.20;;;;;;4989504;28;20045;-76
2023/03/24 09:47:24;;;;;;;14.98;3.63;;;14.30;91.60;;;;;;4991302;28;20030;-76
2023/03/24 09:49:52;;;;;;;14.27;3.90;;;14.30;91.40;;;;;;4982081;28;20112;-76
2023/03/24 09:52:25;;;;;;;10.65;2.97;;;14.50;91.10;;;;;;4989100;28;20034;-76
2023/03/24 09:54:57;;;;;;;13.85;2.97;;;14.70;91.30;;;;;;5004895;28;20033;-77
2023/03/24 09:57:28;;;;;;;10.68;2.83;;;14.80;91.50;;;;;;4993302;28;20023;-76
2023/03/24 09:59:54;;;;;;;8.65;2.13;;;14.80;90.70;;;;;;4990549;28;20027;-75
2023/03/24 10:02:21;;;;;;;11.02;2.90;;;14.70;90.60;;;;;;4989271;28;20515;-75
2023/03/24 10:04:48;;;;;;;10.32;2.15;;;14.70;90.60;;;;;;4991172;28;20026;-75
2023/03/24 10:07:37;;;;;;;8.57;2.45;;;14.80;91.00;;;;;;4992498;28;20096;-76
2023/03/24 10:10:17;;;;;;;12.27;2.70;;;14.90;90.20;;;;;;4997863;28;20029;-75
2023/03/24 10:12:48;;;;;;;10.33;2.93;;;15.00;89.00;;;;;;5002574;28;20034;-75
2023/03/24 10:15:14;;;;;;;13.73;3.30;;;15.10;89.70;;;;;;4993382;28;20293;-77
2023/03/24 10:17:46;;;;;;;12.15;2.30;;;15.30;88.80;;;;;;4988660;28;20050;-75
2023/03/24 10:20:26;;;;;;;13.43;3.38;;;15.30;88.50;;;;;;4988990;28;20058;-75
2023/03/24 10:23:07;;;;;;;8.88;1.98;;;15.40;88.80;;;;;;4989611;28;20034;-75
2023/03/24 10:25:44;;;;;;;11.75;3.15;;;15.30;89.20;;;;;;4988668;28;20120;-76
2023/03/24 10:28:22;;;;;;;9.63;2.83;;;15.30;87.20;;;;;;4986718;28;20105;-75
2023/03/24 10:30:50;;;;;;;9.75;2.17;;;15.40;89.00;;;;;;4990846;28;20029;-76
2023/03/24 10:33:16;;;;;;;14.98;3.75;;;15.50;87.90;;;;;;4990415;28;20615;-75
2023/03/24 10:36:04;;;;;;;12.27;2.78;;;15.70;85.30;;;;;;5001831;28;20030;-75
2023/03/24 10:38:30;;;;;;;9.35;2.55;;;15.80;85.40;;;;;;4989506;28;20800;-75
2023/03/24 10:40:56;;;;;;;11.90;1.98;;;15.90;84.80;;;;;;4989139;28;20073;-75
2023/03/24 10:43:24;;;;;;;12.23;2.30;;;16.10;85.40;;;;;;4987450;28;20463;-75
2023/03/24 10:45:56;;;;;;;11.65;2.40;;;16.30;81.60;;;;;;4989718;28;20062;-76
2023/03/24 10:48:52;;;;;;;11.73;2.67;;;16.50;81.50;;;;;;4989254;28;20113;-74
2023/03/24 10:51:26;;;;;;;14.80;3.40;;;16.60;83.00;;;;;;4985873;28;20040;-77
2023/03/24 10:54:10;;;;;;;10.52;2.40;;;16.70;82.00;;;;;;4989152;28;20113;-75
2023/03/24 10:56:38;;;;;;;9.50;2.70;;;16.70;86.30;;;;;;4986684;28;20519;-76
2023/03/24 10:59:26;;;;;;;18.25;3.78;;;16.60;82.00;;;;;;4988560;28;20041;-76
2023/03/24 11:02:08;;;;;;;11.07;2.65;;;16.50;81.30;;;;;;4989575;28;20037;-75
2023/03/24 11:04:39;;;;;;;11.55;2.75;;;16.10;82.60;;;;;;4987285;28;20030;-76
2023/03/24 11:07:19;;;;;;;6.90;1.98;;;15.90;83.20;;;;;;4989742;28;20030;-76
2023/03/24 11:10:01;;;;;;;9.43;2.63;;;15.80;83.00;;;;;;4989323;28;20030;-77
2023/03/24 11:12:37;;;;;;;10.90;2.55;;;15.70;85.50;;;;;;4988708;28;20096;-77
2023/03/24 11:15:18;;;;;;;11.52;3.05;;;15.60;86.70;;;;;;4988239;28;20015;-74
2023/03/24 11:17:46;;;;;;;8.43;2.70;;;15.50;89.10;;;;;;4988172;28;20353;-77
2023/03/24 11:20:36;;;;;;;8.05;2.20;;;15.40;88.80;;;;;;4989433;28;20032;-77
2023/03/24 11:23:13;;;;;;;9.32;2.20;;;15.30;87.30;;;;;;4989742;28;20101;-78
2023/03/24 11:25:41;;;;;;;8.60;2.17;;;15.00;87.90;;;;;;4988606;28;20027;-76
2023/03/24 11:28:15;;;;;;;12.52;2.53;;;14.70;89.70;;;;;;4988925;28;20037;-76
2023/03/24 11:30:47;;;;;;;8.48;1.80;;;14.70;91.00;;;;;;4984620;28;20417;-76
2023/03/24 11:33:35;;;;;;;6.05;1.98;;;14.60;91.60;;;;;;4993578;28;20048;-76
2023/03/24 11:36:07;;;;;;;6.93;2.00;;;14.30;91.40;;;;;;4992870;28;20159;-76
2023/03/24 11:38:35;;;;;;;9.38;1.70;;;14.30;92.10;;;;;;4994167;28;20042;-75
2023/03/24 11:41:04;;;;;;;7.30;1.52;;;14.30;92.30;;;;;;4991674;28;20027;-75
2023/03/24 11:43:30;;;;;;;5.70;1.20;;;14.30;91.90;;;;;;4991517;28;20030;-76
2023/03/24 11:46:12;;;;;;;5.68;1.10;;;14.30;91.80;;;;;;4988253;28;20019;-75
2023/03/24 11:48:51;;;;;;;4.93;1.23;;;14.40;91.20;;;;;;4988584;28;20077;-76
2023/03/24 11:51:27;;;;;;;7.45;1.45;;;14.60;90.60;;;;;;4979810;28;20031;-76
2023/03/24 11:53:55;;;;;;;6.20;1.40;;;14.90;90.00;;;;;;4988205;28;20030;-77
2023/03/24 11:56:39;;;;;;;6.40;1.23;;;15.20;89.30;;;;;;4987809;28;20026;-74
2023/03/24 11:59:35;;;;;;;6.88;1.25;;;15.50;87.70;;;;;;4977683;28;20762;-76
2023/03/24 12:02:07;;;;;;;7.30;1.30;;;15.60;90.10;;;;;;4988472;28;20057;-76
2023/03/24 12:04:50;;;;;;;7.03;1.70;;;15.40;87.20;;;;;;4990191;28;20041;-76
2023/03/24 12:07:47;;;;;;;6.20;1.50;;;15.30;88.30;;;;;;4993640;28;20035;-76
2023/03/24 12:10:41;;;;;;;9.52;2.20;;;15.00;89.50;;;;;;5002317;28;20030;-76
2023/03/24 12:13:15;;;;;;;9.18;3.08;;;14.80;91.40;;;;;;5004029;28;20037;-75
2023/03/24 12:16:24;;;;;;;9.80;2.53;;;14.60;92.60;;;;;;4994070;28;20057;-76
2023/03/24 12:19:10;;;;;;;11.10;3.75;;;14.40;94.00;;;;;;4989917;28;20396;-77
2023/03/24 12:21:35;;;;;;;5.57;1.85;;;14.20;95.10;;;;;;4995915;28;20025;-76
2023/03/24 12:24:46;;;;;;;8.15;2.30;;;13.90;94.90;;;;;;4995723;28;20030;-76
2023/03/24 12:27:27;;;;;;;9.90;2.38;;;13.70;93.90;;;;;;4993426;28;20108;-77
2023/03/24 12:30:01;;;;;;;8.80;1.40;;;13.40;94.60;;;;;;4992923;28;20026;-76
2023/03/24 12:32:51;;;;;;;8.60;1.50;;;13.40;95.10;;;;;;4993345;28;20035;-76
2023/03/24 12:35:42;;;;;;;9.65;2.13;;;13.40;95.00;;;;;;4994116;28;20408;-76
2023/03/24 12:38:16;;;;;;;9.60;1.65;;;13.20;94.40;;;;;;4992140;28;20085;-75
2023/03/24 12:41:02;;;;;;;12.27;1.98;;;13.10;94.90;;;;;;4990120;28;20023;-76
2023/03/24 12:43:43;;;;;;;9.48;2.00;;;13.10;95.00;;;;;;4990781;28;20066;-74
2023/03/24 12:46:21;;;;;;;7.90;2.25;;;12.90;94.40;;;;;;4991050;28;20044;-74
2023/03/24 12:48:49;;;;;;;8.82;1.38;;;12.80;94.60;;;;;;4988634;28;20032;-75
2023/03/24 12:51:44;;;;;;;7.57;1.80;;;12.80;95.30;;;;;;4989819;28;20201;-75
2023/03/24 12:54:21;;;;;;;7.82;1.67;;;12.90;95.40;;;;;;5007673;28;20030;-75
2023/03/24 12:56:55;;;;;;;7.32;1.90;;;13.10;95.20;;;;;;4991891;28;20065;-74
2023/03/24 12:59:56;;;;;;;6.22;1.73;;;13.30;95.70;;;;;;4988875;28;20034;-75
2023/03/24 13:02:34;;;;;;;8.50;1.83;;;13.80;95.30;;;;;;4992836;28;20045;-75
2023/03/24 13:05:04;;;;;;;4.57;1.17;;;14.20;94.40;;;;;;4986449;28;20481;-75
2023/03/24 13:07:42;;;;;;;;;;;14.30;93.50;;;;;;5000212;28;20023;-74